createdAt,value
2018-06-11T00:01:41.456Z,79.00
2018-06-11T00:04:18.117Z,79.10
2018-06-11T00:06:51.954Z,79.30
2018-06-11T00:09:30.859Z,79.50
2018-06-11T00:12:03.814Z,79.50
2018-06-11T00:14:37.942Z,79.60
2018-06-11T00:17:20.423Z,79.70
2018-06-11T00:19:58.061Z,79.90
2018-06-11T00:22:38.107Z,80.00
2018-06-11T00:25:13.017Z,94.00
2018-06-11T00:27:53.170Z,80.00
2018-06-11T00:30:28.407Z,80.20
2018-06-11T00:33:04.771Z,97.70
2018-06-11T00:35:46.178Z,95.80
2018-06-11T00:38:25.818Z,81.20
2018-06-11T00:46:39.553Z,80.50
2018-06-11T00:49:20.175Z,80.90
2018-06-11T00:57:42.705Z,81.30
2018-06-11T01:00:29.713Z,81.50
2018-06-11T01:28:55.547Z,83.60
2018-06-11T01:40:14.195Z,84.50
2018-06-11T02:13:15.057Z,86.10
2018-06-11T02:30:58.393Z,86.60
2018-06-11T04:19:55.528Z,91.10
2018-06-11T04:22:23.014Z,91.20
2018-06-11T04:24:50.523Z,91.30
2018-06-11T04:27:18.050Z,91.50
2018-06-11T04:29:45.614Z,91.50
2018-06-11T04:34:40.571Z,91.40
2018-06-11T04:37:08.071Z,91.70
2018-06-11T04:39:35.591Z,91.60
2018-06-11T04:42:03.060Z,91.50
2018-06-11T04:44:30.612Z,92.10
2018-06-11T04:46:58.081Z,92.20
2018-06-11T04:49:25.606Z,92.20
2018-06-11T04:51:53.165Z,92.10
2018-06-11T04:54:20.642Z,92.00
2018-06-11T04:56:48.154Z,92.40
2018-06-11T04:59:15.637Z,92.60
2018-06-11T05:01:43.158Z,92.40
2018-06-11T05:04:10.679Z,92.30
2018-06-11T05:06:38.164Z,92.30
2018-06-11T05:09:06.274Z,92.50
2018-06-11T05:11:33.797Z,92.50
2018-06-11T05:14:01.311Z,92.40
2018-06-11T05:16:28.909Z,92.80
2018-06-11T05:18:56.407Z,92.80
2018-06-11T05:21:23.956Z,92.90
2018-06-11T05:23:51.473Z,92.80
2018-06-11T05:26:19.014Z,92.60
2018-06-11T05:28:46.579Z,92.70
2018-06-11T05:31:14.067Z,92.60
2018-06-11T05:33:41.576Z,92.40
2018-06-11T05:36:09.118Z,92.50
2018-06-11T05:38:36.662Z,92.40
2018-06-11T05:41:04.172Z,92.30
2018-06-11T05:43:31.766Z,92.40
2018-06-11T05:45:59.359Z,92.30
2018-06-11T05:48:26.882Z,92.20
2018-06-11T05:50:54.405Z,92.20
2018-06-11T05:53:21.951Z,92.10
2018-06-11T05:55:49.515Z,91.80
2018-06-11T05:58:17.040Z,92.10
2018-06-11T06:00:44.559Z,92.10
2018-06-11T06:03:12.106Z,92.10
2018-06-11T06:05:39.639Z,91.50
2018-06-11T06:08:07.146Z,91.80
2018-06-11T06:10:34.762Z,92.00
2018-06-11T06:13:02.578Z,92.00
2018-06-11T06:15:30.122Z,91.60
2018-06-11T06:17:57.611Z,91.30
2018-06-11T06:20:25.180Z,91.20
2018-06-11T06:22:52.630Z,91.00
2018-06-11T06:25:20.141Z,91.20
2018-06-11T06:27:47.634Z,91.40
2018-06-11T06:30:15.165Z,91.90
2018-06-11T06:32:42.653Z,91.40
2018-06-11T06:35:10.186Z,91.40
2018-06-11T06:37:37.730Z,91.10
2018-06-11T06:40:05.255Z,91.20
2018-06-11T06:42:32.892Z,91.30
2018-06-11T06:45:00.425Z,90.90
2018-06-11T06:47:27.951Z,90.50
2018-06-11T06:49:55.472Z,89.40
2018-06-11T06:52:22.985Z,90.00
2018-06-11T06:54:50.509Z,89.20
2018-06-11T06:57:18.078Z,89.90
2018-06-11T06:59:45.585Z,89.90
2018-06-11T07:02:13.109Z,88.50
2018-06-11T07:04:40.606Z,88.70
2018-06-11T07:07:08.098Z,88.20
2018-06-11T07:09:35.634Z,89.20
2018-06-11T07:12:03.248Z,89.60
2018-06-11T07:14:30.742Z,88.90
2018-06-11T07:16:58.242Z,88.60
2018-06-11T07:19:25.706Z,88.80
2018-06-11T07:21:53.209Z,88.30
2018-06-11T07:24:20.715Z,88.20
2018-06-11T07:26:48.296Z,88.00
2018-06-11T07:29:15.791Z,88.40
2018-06-11T07:31:43.295Z,87.50
2018-06-11T07:34:10.860Z,87.20
2018-06-11T07:36:38.378Z,87.80
2018-06-11T07:39:06.890Z,86.90
2018-06-11T07:41:34.676Z,85.90
2018-06-11T07:44:02.285Z,86.40
2018-06-11T07:46:29.777Z,86.60
2018-06-11T14:57:25.495Z,78.60
2018-06-11T14:59:55.066Z,80.30
2018-06-11T15:02:23.447Z,80.40
2018-06-11T15:04:52.156Z,79.60
2018-06-11T15:07:20.900Z,81.10
2018-06-11T15:09:48.539Z,82.20
2018-06-11T15:12:16.432Z,83.10
2018-06-11T15:17:11.486Z,84.10
2018-06-11T15:19:39.075Z,85.90
2018-06-11T15:22:06.593Z,84.60
2018-06-11T15:24:34.160Z,86.10
2018-06-11T15:27:01.706Z,86.90
2018-06-11T15:29:29.300Z,88.40
2018-06-11T15:44:32.330Z,88.20
2018-06-11T16:06:12.943Z,92.50
2018-06-11T16:08:52.708Z,94.30
2018-06-11T16:11:26.604Z,94.50
2018-06-11T16:14:00.494Z,94.70
2018-06-11T16:16:40.702Z,95.20
2018-06-11T16:19:31.308Z,95.40
2018-06-11T16:25:10.184Z,96.80
2018-06-11T16:27:46.850Z,97.10
2018-06-11T16:30:22.950Z,97.20
2018-06-11T16:32:56.158Z,96.60
2018-06-11T16:35:32.271Z,97.00
2018-06-11T16:38:05.511Z,96.90
2018-06-11T16:40:48.773Z,97.10
2018-06-11T16:43:22.737Z,96.90
2018-06-11T17:16:55.450Z,99.40
2018-06-11T17:19:40.636Z,98.80
2018-06-11T17:22:31.116Z,98.40
